Time;durP1;ratioP1;P1;durP2;ratioP2;P2;SDS_P1;SDS_P2;PMS_P1;PMS_P2;Temp;Humidity;BMP_temperature;BMP_pressure;BME280_temperature;BME280_humidity;BME280_pressure;Samples;Min_cycle;Max_cycle;Signal;HPM_P1;HPM_P2
2022/11/07 00:02:19;;;;;;;3.40;1.70;;;17.60;66.80;18.70;100176.00;;;;5007544;28;20182;-51
2022/11/07 00:04:44;;;;;;;2.07;1.87;;;17.60;66.70;18.70;100171.00;;;;5008089;28;20179;-50
2022/11/07 00:07:10;;;;;;;1.90;1.80;;;17.60;66.70;18.70;100185.00;;;;5007888;28;20233;-50
2022/11/07 00:09:36;;;;;;;2.50;1.70;;;17.60;66.70;18.60;100168.00;;;;5007999;28;20239;-51
2022/11/07 00:12:02;;;;;;;3.57;1.90;;;17.50;66.60;18.60;100166.00;;;;5007778;28;20593;-50
2022/11/07 00:14:27;;;;;;;1.60;1.50;;;17.50;66.60;18.60;100167.00;;;;5007840;28;20222;-51
2022/11/07 00:16:53;;;;;;;1.70;1.60;;;17.50;66.60;18.60;100170.00;;;;5007792;28;20219;-51
2022/11/07 00:19:20;;;;;;;2.23;1.80;;;17.40;66.50;18.60;100180.00;;;;5007976;28;20175;-50
2022/11/07 00:21:47;;;;;;;2.33;1.70;;;17.50;66.70;18.60;100184.00;;;;5007533;28;20172;-50
2022/11/07 00:24:13;;;;;;;1.80;1.70;;;17.40;66.60;18.60;100185.00;;;;5008756;28;20199;-50
2022/11/07 00:26:39;;;;;;;2.10;1.80;;;17.40;66.60;18.60;100184.00;;;;5008379;28;20185;-51
2022/11/07 00:29:06;;;;;;;1.77;1.67;;;17.40;66.60;18.60;100186.00;;;;4990699;28;20286;-50
2022/11/07 00:31:32;;;;;;;2.30;1.70;;;17.40;66.60;18.50;100198.00;;;;5007552;28;20250;-51
2022/11/07 00:33:57;;;;;;;2.03;1.80;;;17.40;66.50;18.50;100186.00;;;;5007946;28;20782;-50
2022/11/07 00:36:27;;;;;;;1.63;1.53;;;17.40;66.60;18.50;100186.00;;;;5007413;28;20265;-51
2022/11/07 00:38:53;;;;;;;1.93;1.70;;;17.40;66.60;18.50;100200.00;;;;4974604;28;20181;-51
2022/11/07 00:41:19;;;;;;;1.60;1.50;;;17.40;66.60;18.50;100206.00;;;;5008767;28;20221;-49
2022/11/07 00:43:44;;;;;;;1.60;1.50;;;17.40;66.70;18.50;100205.00;;;;5012124;28;20240;-49
2022/11/07 00:46:11;;;;;;;1.67;1.57;;;17.30;66.50;18.50;100205.00;;;;4994101;28;20554;-51
2022/11/07 00:48:37;;;;;;;1.80;1.70;;;17.30;66.50;18.50;100206.00;;;;5011460;28;20265;-50
2022/11/07 00:51:19;;;;;;;1.70;1.60;;;17.30;66.50;18.50;100215.00;;;;5011382;28;20277;-50
2022/11/07 00:53:45;;;;;;;1.90;1.70;;;17.30;66.50;18.40;100212.00;;;;4993545;28;20202;-49
2022/11/07 00:56:13;;;;;;;1.80;1.63;;;17.30;66.50;18.40;100216.00;;;;5011028;28;20211;-49
2022/11/07 00:58:41;;;;;;;1.70;1.60;;;17.30;66.50;18.40;100215.00;;;;5011383;28;20171;-49
2022/11/07 01:01:15;;;;;;;1.70;1.60;;;17.30;66.50;18.40;100212.00;;;;5010496;28;20556;-50
2022/11/07 01:06:27;;;;;;;2.00;1.80;;;17.20;66.40;18.30;100205.00;;;;5011115;28;20233;-50
2022/11/07 01:08:54;;;;;;;1.80;1.70;;;17.20;66.40;18.30;100202.00;;;;5011268;28;20708;-50
2022/11/07 01:11:19;;;;;;;1.60;1.50;;;17.20;66.40;18.30;100213.00;;;;5010735;28;20182;-50
2022/11/07 01:13:45;;;;;;;2.00;1.80;;;17.20;66.40;18.30;100213.00;;;;5015264;28;20218;-50
2022/11/07 01:16:11;;;;;;;1.83;1.73;;;17.20;66.40;18.30;100210.00;;;;5015317;28;20631;-50
2022/11/07 01:18:37;;;;;;;1.60;1.50;;;17.20;66.40;18.30;100220.00;;;;5013672;28;20169;-50
2022/11/07 01:21:04;;;;;;;1.70;1.60;;;17.20;66.40;18.30;100224.00;;;;5010837;28;20179;-50
2022/11/07 01:23:30;;;;;;;1.60;1.50;;;17.10;66.30;18.30;100221.00;;;;4993026;28;20652;-50
2022/11/07 01:25:56;;;;;;;1.63;1.53;;;17.10;66.30;18.20;100209.00;;;;5010754;28;20184;-51
2022/11/07 01:28:21;;;;;;;1.57;1.50;;;17.10;66.30;18.20;100210.00;;;;5010589;28;20179;-50
2022/11/07 01:30:47;;;;;;;1.27;1.27;;;17.10;66.40;18.20;100210.00;;;;5010859;28;20249;-51
2022/11/07 01:33:13;;;;;;;1.50;1.40;;;17.10;66.30;18.20;100210.00;;;;5011308;28;20198;-50
2022/11/07 01:35:39;;;;;;;1.70;1.60;;;17.10;66.30;18.20;100219.00;;;;5011915;28;20203;-50
2022/11/07 01:38:05;;;;;;;1.60;1.50;;;17.10;66.30;18.20;100211.00;;;;5010819;28;20540;-49
2022/11/07 01:40:32;;;;;;;1.90;1.80;;;17.10;66.40;18.20;100209.00;;;;5010846;28;20275;-49
2022/11/07 01:43:16;;;;;;;1.70;1.60;;;17.10;66.40;18.20;100213.00;;;;4995254;28;20206;-50
2022/11/07 01:45:42;;;;;;;1.60;1.50;;;17.00;66.50;18.10;100138.00;;;;5010323;28;20190;-49
2022/11/07 01:48:08;;;;;;;1.70;1.60;;;17.00;66.30;18.10;100194.00;;;;5010340;28;20654;-50
2022/11/07 01:50:33;;;;;;;1.60;1.50;;;17.00;66.30;18.10;100198.00;;;;4976657;28;20226;-50
2022/11/07 01:52:59;;;;;;;1.70;1.60;;;17.00;66.40;18.10;100220.00;;;;4975490;28;20283;-51
2022/11/07 01:55:31;;;;;;;1.70;1.60;;;17.00;66.40;18.10;100215.00;;;;4976237;28;20214;-51
2022/11/07 01:58:00;;;;;;;1.73;1.57;;;17.00;66.40;18.10;100222.00;;;;4992708;28;20162;-51
2022/11/07 02:00:26;;;;;;;1.80;1.70;;;17.00;66.40;18.10;100208.00;;;;4976488;28;20272;-52
2022/11/07 02:03:03;;;;;;;1.50;1.40;;;16.90;66.40;18.10;100208.00;;;;5009324;28;20294;-51
2022/11/07 02:05:53;;;;;;;1.60;1.50;;;16.90;66.50;18.10;100203.00;;;;4977737;28;20644;-50
2022/11/07 02:08:19;;;;;;;1.53;1.43;;;16.90;66.40;18.10;100213.00;;;;4967430;28;20186;-51
2022/11/07 02:10:44;;;;;;;1.67;1.57;;;16.90;66.50;18.00;100210.00;;;;4976132;28;20193;-49
2022/11/07 02:13:12;;;;;;;1.30;1.30;;;16.90;66.50;18.00;100196.00;;;;4992027;28;20723;-50
2022/11/07 02:15:37;;;;;;;1.50;1.40;;;16.90;66.50;18.00;100199.00;;;;4976443;28;20206;-50
2022/11/07 02:18:03;;;;;;;1.60;1.50;;;16.90;66.50;18.00;100128.00;;;;4992049;28;20173;-49
2022/11/07 02:20:29;;;;;;;1.70;1.60;;;16.90;66.50;18.00;100195.00;;;;4976140;28;20170;-50
2022/11/07 02:23:05;;;;;;;1.70;1.60;;;16.90;66.50;18.00;100196.00;;;;5009131;28;20242;-49
2022/11/07 02:25:31;;;;;;;1.80;1.70;;;16.80;66.50;18.00;100197.00;;;;4976336;28;20294;-50
2022/11/07 02:27:59;;;;;;;1.50;1.40;;;16.80;66.50;18.00;100205.00;;;;4991969;28;20208;-50
2022/11/07 02:30:32;;;;;;;1.60;1.50;;;16.80;66.50;17.90;100193.00;;;;4975956;28;20240;-50
2022/11/07 02:32:58;;;;;;;1.70;1.60;;;16.90;66.50;17.90;100201.00;;;;4960154;28;20202;-50
2022/11/07 02:35:41;;;;;;;1.50;1.40;;;16.80;66.40;17.90;100202.00;;;;5009454;28;20203;-50
2022/11/07 02:38:25;;;;;;;1.70;1.60;;;16.80;66.40;17.90;100212.00;;;;4992179;28;20260;-50
2022/11/07 02:41:14;;;;;;;1.70;1.60;;;16.80;66.40;17.90;100211.00;;;;4976918;28;20169;-49
2022/11/07 02:43:42;;;;;;;1.40;1.30;;;16.80;66.50;17.90;100212.00;;;;4996039;28;20195;-49
2022/11/07 02:46:09;;;;;;;1.70;1.60;;;16.80;66.50;17.90;100199.00;;;;4975999;28;20173;-50
2022/11/07 02:48:47;;;;;;;1.50;1.40;;;16.70;66.50;17.90;100201.00;;;;4975707;28;20181;-50
2022/11/07 02:51:13;;;;;;;1.50;1.40;;;16.70;66.60;17.90;100124.00;;;;4991278;28;20662;-50
2022/11/07 02:53:39;;;;;;;1.70;1.60;;;16.70;66.60;17.90;100205.00;;;;5008958;28;20197;-52
2022/11/07 02:56:05;;;;;;;1.50;1.40;;;16.70;66.70;17.90;100211.00;;;;5009042;28;20248;-50
2022/11/07 02:58:31;;;;;;;1.60;1.50;;;16.70;66.70;17.90;100200.00;;;;5009095;28;20277;-50
2022/11/07 03:01:01;;;;;;;1.70;1.60;;;16.70;66.70;17.90;100210.00;;;;4990859;28;20176;-51
2022/11/07 03:03:29;;;;;;;1.60;1.50;;;16.60;66.70;17.90;100211.00;;;;5008694;28;20734;-51
2022/11/07 03:05:55;;;;;;;1.43;1.33;;;16.70;66.70;17.90;100212.00;;;;4991714;28;20192;-50
2022/11/07 03:08:20;;;;;;;1.37;1.30;;;16.70;66.60;17.90;100214.00;;;;5008819;28;20176;-50
2022/11/07 03:10:46;;;;;;;1.40;1.30;;;16.70;66.50;17.90;100214.00;;;;5008587;28;20187;-50
2022/11/07 03:13:12;;;;;;;1.80;1.70;;;16.70;66.50;17.90;100213.00;;;;5008125;28;20196;-51
2022/11/07 03:15:38;;;;;;;1.60;1.50;;;16.70;66.40;17.90;100212.00;;;;5008698;28;20217;-50
2022/11/07 03:18:03;;;;;;;1.53;1.43;;;16.70;66.40;17.80;100212.00;;;;5008660;28;20169;-50
2022/11/07 03:20:29;;;;;;;1.67;1.57;;;16.60;66.30;17.90;100218.00;;;;5008677;28;20263;-50
2022/11/07 03:22:55;;;;;;;1.67;1.57;;;16.70;66.40;17.90;100212.00;;;;5008283;28;20186;-50
2022/11/07 03:25:20;;;;;;;1.70;1.60;;;16.70;66.40;17.90;100211.00;;;;4990967;28;20177;-50
2022/11/07 03:27:47;;;;;;;1.40;1.30;;;16.70;66.40;17.80;100219.00;;;;5008221;28;20636;-51
2022/11/07 03:30:13;;;;;;;1.50;1.40;;;16.70;66.40;17.80;100218.00;;;;4990984;28;20174;-50
2022/11/07 03:32:39;;;;;;;1.53;1.43;;;16.60;66.30;17.80;100219.00;;;;5008251;28;20277;-51
2022/11/07 03:35:05;;;;;;;1.47;1.20;;;16.60;66.20;17.80;100214.00;;;;5008785;28;20536;-51
2022/11/07 03:37:31;;;;;;;1.13;1.13;;;16.60;66.20;17.80;100222.00;;;;5008477;28;20243;-50
2022/11/07 03:39:57;;;;;;;1.50;1.40;;;16.60;66.20;17.80;100217.00;;;;5008381;28;20633;-51
2022/11/07 03:42:22;;;;;;;1.50;1.40;;;16.60;66.20;17.80;100226.00;;;;5008220;28;20225;-50
2022/11/07 03:44:48;;;;;;;1.20;1.20;;;16.60;66.20;17.80;100221.00;;;;5008109;28;20229;-49
2022/11/07 03:47:14;;;;;;;1.40;1.30;;;16.60;67.00;17.80;100224.00;;;;5008192;28;20222;-49
2022/11/07 03:49:40;;;;;;;1.67;1.57;;;16.60;66.20;17.80;100219.00;;;;5008362;28;20628;-49
2022/11/07 03:52:05;;;;;;;1.50;1.40;;;16.60;66.20;17.80;100214.00;;;;5007844;28;20184;-51
2022/11/07 03:54:31;;;;;;;1.50;1.40;;;16.60;66.20;17.80;100224.00;;;;5008649;28;20215;-50
2022/11/07 03:56:57;;;;;;;1.70;1.60;;;16.60;66.10;17.80;100221.00;;;;5008622;28;20216;-50
2022/11/07 03:59:23;;;;;;;1.50;1.40;;;16.60;66.20;17.80;100224.00;;;;5008206;28;20821;-50
2022/11/07 04:01:48;;;;;;;1.63;1.53;;;16.60;67.00;17.80;100227.00;;;;4990070;28;20173;-51
2022/11/07 04:04:14;;;;;;;4.00;1.50;;;16.60;66.30;17.70;100228.00;;;;5008013;28;20203;-51
2022/11/07 04:06:40;;;;;;;1.53;1.43;;;16.50;66.10;17.70;100232.00;;;;5008208;28;20171;-51
2022/11/07 04:09:05;;;;;;;1.43;1.33;;;16.60;66.30;17.70;100226.00;;;;5008090;28;20169;-51
2022/11/07 04:17:17;;;;;;;1.40;1.30;;;16.60;66.30;17.70;100238.00;;;;5009672;28;20669;-51
2022/11/07 04:19:45;;;;;;;1.67;1.57;;;16.50;66.10;17.70;100222.00;;;;4997180;28;20190;-50
2022/11/07 04:22:10;;;;;;;1.47;1.37;;;16.50;65.90;17.70;100246.00;;;;5011958;28;20255;-49
2022/11/07 04:24:36;;;;;;;1.50;1.40;;;16.50;65.90;17.70;100231.00;;;;5011982;28;20572;-50
2022/11/07 04:29:46;;;;;;;2.90;1.47;;;16.50;65.80;17.70;100236.00;;;;5011818;28;20831;-50
2022/11/07 04:32:11;;;;;;;1.50;1.40;;;16.50;65.80;17.70;100248.00;;;;5011323;28;20179;-50
2022/11/07 04:34:37;;;;;;;1.53;1.43;;;16.50;65.80;17.40;100238.00;;;;5011464;28;20208;-49
2022/11/07 04:37:03;;;;;;;4.23;1.50;;;16.50;65.90;17.70;100241.00;;;;4993884;28;20192;-50
2022/11/07 04:39:29;;;;;;;4.80;1.60;;;16.50;66.20;17.60;100249.00;;;;5011247;28;20603;-49
2022/11/07 04:41:55;;;;;;;3.47;1.47;;;16.50;66.30;17.60;100245.00;;;;5011389;28;20200;-49
2022/11/07 04:44:21;;;;;;;3.40;1.53;;;16.50;66.30;17.60;100245.00;;;;5011294;28;20671;-49
2022/11/07 04:46:47;;;;;;;1.67;1.43;;;16.40;66.20;17.60;100238.00;;;;5011534;28;20488;-49
2022/11/07 04:49:14;;;;;;;1.63;1.37;;;16.50;66.30;17.60;100237.00;;;;5011926;28;20530;-49
2022/11/07 04:51:42;;;;;;;2.77;1.57;;;16.50;66.30;17.60;100236.00;;;;5012243;28;20175;-51
2022/11/07 04:54:12;;;;;;;2.97;1.40;;;16.50;66.40;17.60;100228.00;;;;5012280;28;20211;-50
2022/11/07 04:56:38;;;;;;;2.23;1.50;;;16.40;66.20;17.60;100235.00;;;;5012310;28;20260;-49
2022/11/07 04:59:04;;;;;;;1.73;1.40;;;16.40;66.10;17.60;100232.00;;;;5011840;28;20320;-49
2022/11/07 05:01:29;;;;;;;1.60;1.30;;;16.40;66.10;17.60;100225.00;;;;5011334;28;20230;-49
2022/11/07 05:03:55;;;;;;;2.90;1.70;;;16.40;66.00;17.60;100235.00;;;;5011604;28;20188;-48
2022/11/07 05:06:22;;;;;;;1.50;1.40;;;16.40;66.30;17.60;100227.00;;;;5011773;28;20181;-48
2022/11/07 05:08:47;;;;;;;1.87;1.20;;;16.40;66.00;17.50;100229.00;;;;4995068;28;20658;-48
2022/11/07 05:11:13;;;;;;;2.77;1.40;;;16.40;66.00;17.50;100144.00;;;;5012716;28;20190;-49
2022/11/07 05:13:39;;;;;;;3.73;1.67;;;16.40;66.00;17.50;100231.00;;;;5012110;28;20193;-49
2022/11/07 05:16:05;;;;;;;2.13;1.50;;;16.40;66.10;17.50;100199.00;;;;5009408;28;20599;-49
2022/11/07 05:18:31;;;;;;;3.47;1.57;;;16.40;66.30;17.50;100234.00;;;;4993541;28;20193;-50
2022/11/07 05:20:56;;;;;;;2.17;1.40;;;16.40;66.30;17.50;100236.00;;;;5011208;28;20232;-50
2022/11/07 05:23:22;;;;;;;2.67;1.60;;;16.40;66.60;17.50;100239.00;;;;5011265;28;20631;-49
2022/11/07 05:25:50;;;;;;;3.47;1.70;;;16.30;66.50;17.50;100238.00;;;;5011420;28;20575;-50
2022/11/07 05:28:23;;;;;;;2.60;1.60;;;16.40;66.70;17.50;100238.00;;;;5010091;28;20181;-50
2022/11/07 05:30:48;;;;;;;1.60;1.50;;;16.30;66.60;17.50;100241.00;;;;5010496;28;20214;-50
2022/11/07 05:33:15;;;;;;;5.77;1.80;;;16.40;66.70;17.50;100242.00;;;;5010675;28;20193;-49
2022/11/07 05:35:42;;;;;;;2.23;1.67;;;16.40;66.70;17.50;100243.00;;;;5011150;28;20297;-50
2022/11/07 05:38:07;;;;;;;2.17;1.50;;;16.30;66.70;17.50;100234.00;;;;5010800;28;20544;-50
2022/11/07 05:40:38;;;;;;;5.43;1.70;;;16.30;66.70;17.50;100237.00;;;;5010664;28;20261;-50
2022/11/07 05:43:06;;;;;;;3.63;1.70;;;16.30;67.00;17.50;100238.00;;;;5010622;28;20200;-49
2022/11/07 05:45:33;;;;;;;5.13;1.60;;;16.30;67.00;17.50;100240.00;;;;5010964;28;20270;-51
2022/11/07 05:48:00;;;;;;;4.57;1.87;;;16.30;67.10;17.50;100240.00;;;;5011118;28;20711;-51
2022/11/07 05:50:27;;;;;;;4.00;1.90;;;16.30;67.00;17.40;100239.00;;;;5010761;28;20542;-50
2022/11/07 05:52:53;;;;;;;5.67;2.23;;;16.30;67.00;17.40;100242.00;;;;5010105;28;20303;-51
2022/11/07 05:55:18;;;;;;;6.50;2.10;;;16.20;67.20;17.40;100245.00;;;;5010339;28;20311;-51
2022/11/07 05:57:44;;;;;;;6.70;2.10;;;16.20;67.30;17.40;100253.00;;;;5010788;28;20184;-50
2022/11/07 06:00:11;;;;;;;6.60;1.87;;;16.20;67.30;17.40;100246.00;;;;5010516;28;20805;-51
2022/11/07 06:02:36;;;;;;;7.20;2.20;;;16.20;67.40;17.40;100256.00;;;;5008890;28;20259;-51
2022/11/07 06:05:02;;;;;;;7.10;2.40;;;16.20;67.40;17.40;100246.00;;;;5010641;28;20661;-50
2022/11/07 06:07:28;;;;;;;9.37;2.13;;;16.20;67.30;17.40;100248.00;;;;5010979;28;20180;-49
2022/11/07 06:09:54;;;;;;;4.40;1.93;;;16.20;67.30;17.40;100249.00;;;;5010699;28;20194;-50
2022/11/07 06:12:19;;;;;;;8.10;2.43;;;16.20;67.20;17.40;100251.00;;;;5009858;28;20742;-50
2022/11/07 06:14:45;;;;;;;5.00;1.90;;;16.20;67.20;17.40;100255.00;;;;5010436;28;20271;-50
2022/11/07 06:17:11;;;;;;;5.23;1.90;;;16.20;67.20;17.40;100247.00;;;;5010465;28;20182;-50
2022/11/07 06:19:37;;;;;;;5.60;2.20;;;16.20;67.30;17.40;100243.00;;;;5010211;28;20590;-50
2022/11/07 06:22:02;;;;;;;6.10;2.10;;;16.20;67.20;17.40;100253.00;;;;5010234;28;20198;-50
2022/11/07 06:24:28;;;;;;;4.07;2.20;;;16.20;67.20;17.40;100251.00;;;;5011460;28;20203;-50
2022/11/07 06:26:54;;;;;;;3.17;2.03;;;16.20;67.20;17.40;100259.00;;;;5010774;28;20620;-50
2022/11/07 06:29:19;;;;;;;5.23;2.07;;;16.20;67.20;17.40;100258.00;;;;5010689;28;20172;-52
2022/11/07 06:31:45;;;;;;;4.57;2.00;;;16.20;67.20;17.40;100255.00;;;;5009429;28;20173;-49
2022/11/07 06:34:11;;;;;;;3.97;1.70;;;16.20;67.20;17.40;100255.00;;;;5010029;28;20197;-50
2022/11/07 06:36:37;;;;;;;3.50;1.90;;;16.20;67.20;17.40;100264.00;;;;5009623;28;20231;-50
2022/11/07 06:39:02;;;;;;;5.27;1.70;;;16.20;67.20;17.40;100267.00;;;;5009625;28;20175;-49
2022/11/07 06:41:28;;;;;;;4.20;1.87;;;16.10;67.00;17.40;100268.00;;;;5009528;28;20208;-50
2022/11/07 06:43:54;;;;;;;4.93;1.80;;;16.20;67.10;17.40;100271.00;;;;5009861;28;20274;-50
2022/11/07 06:46:22;;;;;;;3.10;1.90;;;16.20;67.20;17.30;100271.00;;;;5009729;28;20591;-49
2022/11/07 06:48:48;;;;;;;4.00;2.13;;;16.20;67.20;17.40;100275.00;;;;5008181;28;20186;-49
2022/11/07 06:51:13;;;;;;;3.40;1.90;;;16.20;67.20;17.30;100280.00;;;;5009518;28;20645;-50
2022/11/07 06:53:39;;;;;;;5.07;1.90;;;16.10;67.10;17.30;100283.00;;;;5008431;28;20202;-49
2022/11/07 06:56:07;;;;;;;6.03;2.20;;;16.10;67.20;17.30;100278.00;;;;5009518;28;20213;-50
2022/11/07 06:58:33;;;;;;;2.73;1.70;;;16.10;67.20;17.30;100272.00;;;;5009499;28;20187;-51
2022/11/07 07:01:01;;;;;;;3.57;1.60;;;16.10;67.10;17.30;100274.00;;;;5008364;28;20630;-49
2022/11/07 07:03:26;;;;;;;3.90;1.63;;;16.10;67.20;17.30;100272.00;;;;5009373;28;20196;-50
2022/11/07 07:05:52;;;;;;;4.00;1.77;;;16.10;67.10;17.30;100284.00;;;;5009846;28;20231;-50
2022/11/07 07:08:18;;;;;;;2.47;1.47;;;16.10;67.10;17.30;100270.00;;;;5009645;28;20728;-49
2022/11/07 07:10:44;;;;;;;3.07;1.70;;;16.10;67.10;17.30;100285.00;;;;5009242;28;20176;-50
2022/11/07 07:13:11;;;;;;;2.60;1.73;;;16.10;67.10;17.20;100283.00;;;;5008889;28;20226;-49
2022/11/07 07:15:37;;;;;;;3.40;1.80;;;16.10;67.20;17.20;100285.00;;;;5009543;28;20212;-49
2022/11/07 07:18:03;;;;;;;3.73;1.80;;;16.10;67.10;17.30;100286.00;;;;5009490;28;20263;-50
2022/11/07 07:20:29;;;;;;;1.87;1.60;;;16.10;67.20;17.30;100285.00;;;;5008231;28;20192;-50
2022/11/07 07:22:55;;;;;;;2.20;1.80;;;16.10;67.20;17.20;100289.00;;;;5008796;28;20253;-50
2022/11/07 07:25:20;;;;;;;2.60;1.77;;;16.10;67.20;17.20;100291.00;;;;5008310;28;20180;-50
2022/11/07 07:27:47;;;;;;;2.47;1.80;;;16.10;67.10;17.20;100288.00;;;;5009049;28;20713;-50
2022/11/07 07:30:13;;;;;;;2.30;1.70;;;16.10;67.10;16.90;100298.00;;;;5008873;28;20185;-50
2022/11/07 07:32:38;;;;;;;3.10;1.80;;;16.10;67.20;17.20;100294.00;;;;5008101;28;20661;-50
2022/11/07 07:35:05;;;;;;;3.57;1.80;;;16.10;67.20;17.20;100293.00;;;;5008807;28;20196;-50
2022/11/07 07:37:31;;;;;;;2.83;1.77;;;16.10;67.20;17.20;100290.00;;;;5009465;28;20172;-50
2022/11/07 07:39:56;;;;;;;5.70;2.40;;;16.00;67.10;17.20;100293.00;;;;5011923;28;20175;-50
2022/11/07 07:42:22;;;;;;;3.10;1.70;;;16.00;67.00;17.20;100314.00;;;;5009343;28;20180;-50
2022/11/07 07:44:48;;;;;;;2.40;1.77;;;16.00;67.10;17.20;100313.00;;;;5008864;28;20543;-50
2022/11/07 07:47:13;;;;;;;2.60;1.73;;;16.00;67.10;17.20;100308.00;;;;5009112;28;20235;-50
2022/11/07 07:49:39;;;;;;;2.97;1.70;;;16.00;67.20;17.20;100311.00;;;;5009043;28;20556;-50
2022/11/07 07:52:05;;;;;;;3.27;1.80;;;16.00;67.20;17.20;100314.00;;;;5006127;28;20205;-50
2022/11/07 07:54:31;;;;;;;2.03;1.33;;;16.00;67.10;17.20;100312.00;;;;5008720;28;20209;-49
2022/11/07 07:56:56;;;;;;;1.87;1.63;;;16.00;67.10;17.20;100317.00;;;;5008476;28;20175;-50
2022/11/07 07:59:22;;;;;;;1.90;1.70;;;16.00;67.20;17.20;100309.00;;;;5007642;28;20210;-50
2022/11/07 08:01:48;;;;;;;1.90;1.50;;;16.00;67.20;17.10;100301.00;;;;5007897;28;20207;-49
2022/11/07 08:04:13;;;;;;;2.07;1.70;;;16.00;67.20;17.20;100317.00;;;;5006939;28;20696;-49
2022/11/07 08:06:39;;;;;;;2.77;1.80;;;16.00;67.00;17.10;100326.00;;;;4939036;28;20179;-49
2022/11/07 08:09:05;;;;;;;1.70;1.60;;;16.00;67.20;17.10;100319.00;;;;4988497;28;20171;-50
2022/11/07 08:11:31;;;;;;;2.70;1.60;;;16.00;67.20;17.10;100320.00;;;;4995081;28;20266;-50
2022/11/07 08:13:57;;;;;;;2.10;1.27;;;16.00;67.20;16.90;100330.00;;;;4985166;28;20199;-50
2022/11/07 08:16:22;;;;;;;2.07;1.30;;;16.00;67.20;17.10;100325.00;;;;5006618;28;20718;-50
2022/11/07 08:18:48;;;;;;;1.97;1.53;;;16.00;67.30;17.10;100332.00;;;;5006923;28;20160;-49
2022/11/07 08:21:14;;;;;;;1.57;1.47;;;16.00;67.20;17.10;100323.00;;;;5024573;28;20580;-50
2022/11/07 08:23:39;;;;;;;1.87;1.60;;;15.90;67.10;17.10;100277.00;;;;5020219;28;20192;-49
2022/11/07 08:26:05;;;;;;;2.23;1.70;;;15.90;67.10;17.10;100339.00;;;;5007880;28;20259;-49
2022/11/07 08:28:34;;;;;;;2.47;1.60;;;16.00;67.20;17.10;100340.00;;;;5008347;28;20177;-49
2022/11/07 08:31:03;;;;;;;2.07;1.67;;;15.90;67.20;17.10;100343.00;;;;5008353;28;20339;-49
2022/11/07 08:33:29;;;;;;;5.90;1.80;;;15.90;67.20;17.10;100342.00;;;;5008057;28;20227;-49
2022/11/07 08:35:56;;;;;;;2.47;1.70;;;15.90;68.60;17.10;100345.00;;;;5008027;28;20196;-49
2022/11/07 08:38:22;;;;;;;7.07;1.90;;;15.90;68.00;17.10;100343.00;;;;5008129;28;20168;-51
2022/11/07 08:40:49;;;;;;;3.00;1.60;;;15.90;67.90;17.10;100355.00;;;;5008289;28;20602;-50
2022/11/07 08:43:16;;;;;;;1.73;1.60;;;15.90;68.00;17.10;100356.00;;;;5007153;28;20184;-50
2022/11/07 08:45:46;;;;;;;1.40;1.30;;;16.00;68.10;17.10;100353.00;;;;4990879;28;20191;-50
2022/11/07 08:48:12;;;;;;;2.47;1.80;;;16.10;68.00;17.20;100301.00;;;;5008421;28;20210;-49
2022/11/07 08:50:38;;;;;;;3.57;1.80;;;16.20;68.00;17.20;100353.00;;;;5007323;28;20181;-50
2022/11/07 08:53:04;;;;;;;4.63;1.80;;;16.30;68.10;17.30;100348.00;;;;5008104;28;20262;-50
2022/11/07 08:55:30;;;;;;;5.13;2.03;;;16.40;67.90;17.30;100349.00;;;;5010323;28;20200;-50
2022/11/07 08:58:00;;;;;;;4.43;1.70;;;16.60;67.70;17.40;100355.00;;;;4990998;28;20251;-50
2022/11/07 09:00:26;;;;;;;3.80;1.90;;;16.70;67.40;17.50;100358.00;;;;5008316;28;20192;-49
2022/11/07 09:02:52;;;;;;;3.77;1.70;;;16.90;67.20;17.60;100280.00;;;;5008914;28;20196;-49
2022/11/07 09:05:17;;;;;;;3.13;1.80;;;17.00;66.80;17.40;100353.00;;;;4887779;28;20192;-50
2022/11/07 09:07:43;;;;;;;5.07;2.07;;;17.20;66.40;17.80;100357.00;;;;5011698;28;20538;-49
2022/11/07 09:10:10;;;;;;;2.60;1.90;;;17.40;66.60;17.90;100357.00;;;;5011481;28;20202;-49
2022/11/07 09:12:42;;;;;;;2.83;1.70;;;17.50;66.10;18.00;100352.00;;;;5011389;28;20206;-50
2022/11/07 09:15:09;;;;;;;3.00;1.67;;;17.70;65.90;18.10;100358.00;;;;4994759;28;20593;-50
2022/11/07 09:17:34;;;;;;;3.50;1.80;;;17.90;65.60;18.20;100365.00;;;;5011865;28;20225;-49
2022/11/07 09:20:00;;;;;;;3.13;1.80;;;18.00;65.40;18.40;100358.00;;;;5011522;28;20175;-49
2022/11/07 09:22:26;;;;;;;1.67;1.50;;;18.20;65.20;18.50;100366.00;;;;5011258;28;20538;-50
2022/11/07 09:24:51;;;;;;;3.53;1.90;;;18.30;64.90;18.60;100359.00;;;;5011218;28;20180;-50
2022/11/07 09:27:17;;;;;;;1.87;1.50;;;18.40;64.80;18.70;100367.00;;;;5011399;28;20310;-50
2022/11/07 09:29:43;;;;;;;3.03;1.67;;;18.60;64.80;18.80;100363.00;;;;5011078;28;20172;-49
2022/11/07 09:32:09;;;;;;;2.67;1.80;;;18.70;64.60;18.90;100364.00;;;;5010664;28;20176;-49
2022/11/07 09:34:34;;;;;;;3.00;1.80;;;18.70;64.50;19.00;100375.00;;;;4993487;28;20175;-49
2022/11/07 09:37:01;;;;;;;2.63;1.70;;;18.80;64.50;19.10;100367.00;;;;5011003;28;20175;-51
2022/11/07 09:39:27;;;;;;;2.93;1.70;;;18.90;64.60;19.20;100376.00;;;;4993778;28;20167;-51
2022/11/07 09:42:04;;;;;;;6.07;1.90;;;19.00;65.00;19.30;100389.00;;;;5009875;28;20641;-49
2022/11/07 09:44:54;;;;;;;6.73;2.03;;;19.00;65.30;19.30;100380.00;;;;4978448;28;20199;-51
2022/11/07 09:47:42;;;;;;;2.43;1.67;;;19.00;65.70;19.40;100375.00;;;;5011452;28;20160;-50
2022/11/07 09:50:36;;;;;;;7.57;2.27;;;19.00;65.30;19.50;100379.00;;;;4977813;28;20145;-50
2022/11/07 09:53:18;;;;;;;5.93;2.00;;;19.00;65.60;19.50;100388.00;;;;5011050;28;20191;-49
2022/11/07 09:56:03;;;;;;;5.87;1.90;;;19.10;65.90;19.50;100398.00;;;;4993743;28;20235;-49
2022/11/07 09:58:50;;;;;;;9.20;1.90;;;19.00;66.00;19.50;100387.00;;;;4993636;28;20160;-49
2022/11/07 10:01:17;;;;;;;7.33;1.93;;;19.10;66.10;19.60;100390.00;;;;4974089;28;20680;-49
2022/11/07 10:03:43;;;;;;;8.93;1.97;;;19.00;66.00;19.60;100403.00;;;;4989910;28;20192;-48
2022/11/07 10:06:22;;;;;;;3.43;1.77;;;19.00;66.10;19.60;100399.00;;;;4953860;28;20174;-47
2022/11/07 10:09:23;;;;;;;4.30;2.00;;;19.00;66.20;19.60;100395.00;;;;4984415;28;20181;-50
2022/11/07 10:12:15;;;;;;;6.07;1.80;;;19.00;66.20;19.60;100405.00;;;;5012867;28;20198;-50
2022/11/07 10:15:11;;;;;;;4.67;2.00;;;19.00;66.40;19.40;100408.00;;;;5011562;28;20252;-50
2022/11/07 10:17:57;;;;;;;4.57;1.70;;;18.90;66.40;19.60;100394.00;;;;5006163;28;20659;-50
2022/11/07 10:20:45;;;;;;;7.60;2.10;;;18.90;66.50;19.60;100408.00;;;;4997202;28;20175;-49
2022/11/07 10:23:45;;;;;;;3.73;1.80;;;18.80;66.50;19.60;100412.00;;;;5012986;28;20193;-49
2022/11/07 10:26:12;;;;;;;4.27;1.97;;;18.80;66.60;19.60;100402.00;;;;5008087;28;20186;-49
2022/11/07 10:28:56;;;;;;;2.87;1.70;;;18.70;66.60;19.50;100409.00;;;;5012753;28;20218;-49
2022/11/07 10:31:22;;;;;;;4.93;1.80;;;18.80;66.80;19.50;100406.00;;;;4997287;28;20616;-50
2022/11/07 10:33:49;;;;;;;4.10;2.00;;;18.80;66.80;19.50;100405.00;;;;5012739;28;20282;-50
2022/11/07 10:36:29;;;;;;;2.83;1.70;;;18.80;66.80;19.50;100404.00;;;;5029953;28;20698;-50
2022/11/07 10:38:55;;;;;;;2.07;1.47;;;18.70;66.80;19.50;100404.00;;;;5030392;28;20586;-49
2022/11/07 10:41:24;;;;;;;4.80;1.97;;;18.70;66.90;19.50;100406.00;;;;5030529;28;20195;-49
2022/11/07 10:44:15;;;;;;;4.20;1.97;;;18.70;67.00;19.50;100412.00;;;;5030527;28;20206;-50
2022/11/07 10:46:45;;;;;;;3.97;1.63;;;18.60;67.00;19.50;100403.00;;;;4996353;28;20163;-50
2022/11/07 10:49:23;;;;;;;2.67;1.70;;;18.60;67.10;19.50;100401.00;;;;5029899;28;20179;-50
2022/11/07 10:51:50;;;;;;;2.47;1.80;;;18.60;67.10;19.50;100399.00;;;;5029811;28;20186;-50
2022/11/07 10:54:24;;;;;;;2.17;1.53;;;18.60;67.10;19.50;100401.00;;;;5029412;28;20202;-49
2022/11/07 10:57:17;;;;;;;2.17;1.70;;;18.60;67.10;19.40;100397.00;;;;5029445;28;20228;-50
2022/11/07 10:59:57;;;;;;;3.93;1.70;;;18.50;67.10;19.40;100393.00;;;;5029446;28;20258;-49
2022/11/07 11:02:44;;;;;;;2.47;1.40;;;18.50;67.10;19.40;100388.00;;;;5029067;28;20191;-49
2022/11/07 11:05:32;;;;;;;4.27;1.50;;;18.50;67.20;19.40;100391.00;;;;5011985;28;20162;-49